sensor_id;sensor_type;location;lat;lon;timestamp;pressure;altitude;pressure_sealevel;temperature;humidity
29461;BME280;16428;47.836;35.106;2023-12-20T00:02:19;101584.22;;;5.84;100.00
29461;BME280;16428;47.836;35.106;2023-12-20T00:04:46;101584.34;;;5.94;100.00
29461;BME280;16428;47.836;35.106;2023-12-20T00:07:13;101580.72;;;5.95;100.00
29461;BME280;16428;47.836;35.106;2023-12-20T00:09:40;101574.78;;;5.91;100.00
29461;BME280;16428;47.836;35.106;2023-12-20T00:12:08;101570.97;;;6.05;100.00
29461;BME280;16428;47.836;35.106;2023-12-20T00:14:35;101551.81;;;6.00;100.00
29461;BME280;16428;47.836;35.106;2023-12-20T00:17:03;101553.06;;;5.85;100.00
29461;BME280;16428;47.836;35.106;2023-12-20T00:19:30;101554.91;;;5.95;100.00
29461;BME280;16428;47.836;35.106;2023-12-20T00:21:57;101553.41;;;6.03;100.00
29461;BME280;16428;47.836;35.106;2023-12-20T00:24:26;101550.72;;;6.03;100.00
29461;BME280;16428;47.836;35.106;2023-12-20T00:26:53;101551.97;;;5.87;100.00
29461;BME280;16428;47.836;35.106;2023-12-20T00:29:20;101551.81;;;6.00;100.00
29461;BME280;16428;47.836;35.106;2023-12-20T00:31:47;101548.97;;;5.92;100.00
29461;BME280;16428;47.836;35.106;2023-12-20T00:34:14;101545.19;;;5.83;100.00
29461;BME280;16428;47.836;35.106;2023-12-20T00:36:41;101538.56;;;5.78;100.00
29461;BME280;16428;47.836;35.106;2023-12-20T00:39:08;101522.94;;;5.73;100.00
29461;BME280;16428;47.836;35.106;2023-12-20T00:41:35;101533.03;;;5.58;100.00
29461;BME280;16428;47.836;35.106;2023-12-20T00:44:02;101520.88;;;5.65;100.00
29461;BME280;16428;47.836;35.106;2023-12-20T00:46:30;101517.22;;;5.66;100.00
29461;BME280;16428;47.836;35.106;2023-12-20T00:48:57;101515.34;;;5.57;100.00
29461;BME280;16428;47.836;35.106;2023-12-20T00:51:24;101518.59;;;5.61;100.00
29461;BME280;16428;47.836;35.106;2023-12-20T00:53:51;101521.72;;;5.66;100.00
29461;BME280;16428;47.836;35.106;2023-12-20T00:56:21;101520.06;;;5.65;100.00
29461;BME280;16428;47.836;35.106;2023-12-20T00:58:48;101519.91;;;5.66;100.00
29461;BME280;16428;47.836;35.106;2023-12-20T01:01:15;101512.19;;;5.63;100.00
29461;BME280;16428;47.836;35.106;2023-12-20T01:03:43;101503.53;;;5.71;100.00
29461;BME280;16428;47.836;35.106;2023-12-20T01:06:10;101492.25;;;5.79;100.00
29461;BME280;16428;47.836;35.106;2023-12-20T01:08:37;101497.47;;;5.80;100.00
29461;BME280;16428;47.836;35.106;2023-12-20T01:11:04;101506.63;;;5.87;100.00
29461;BME280;16428;47.836;35.106;2023-12-20T01:13:32;101517.22;;;5.78;100.00
29461;BME280;16428;47.836;35.106;2023-12-20T01:15:59;101505.06;;;5.85;100.00
29461;BME280;16428;47.836;35.106;2023-12-20T01:18:27;101516.75;;;5.73;100.00
29461;BME280;16428;47.836;35.106;2023-12-20T01:20:54;101506.03;;;5.95;100.00
29461;BME280;16428;47.836;35.106;2023-12-20T01:23:21;101501.44;;;5.86;100.00
29461;BME280;16428;47.836;35.106;2023-12-20T01:25:48;101505.31;;;5.82;100.00
29461;BME280;16428;47.836;35.106;2023-12-20T01:28:15;101510.31;;;5.75;100.00
29461;BME280;16428;47.836;35.106;2023-12-20T01:30:42;101498.56;;;5.78;100.00
29461;BME280;16428;47.836;35.106;2023-12-20T01:33:10;101504.22;;;5.84;100.00
29461;BME280;16428;47.836;35.106;2023-12-20T01:35:37;101508.63;;;5.74;100.00
29461;BME280;16428;47.836;35.106;2023-12-20T01:38:04;101497.97;;;5.74;100.00
29461;BME280;16428;47.836;35.106;2023-12-20T01:40:31;101500.94;;;5.81;100.00
29461;BME280;16428;47.836;35.106;2023-12-20T01:43:00;101495.38;;;5.84;100.00
29461;BME280;16428;47.836;35.106;2023-12-20T01:45:27;101487.38;;;5.84;100.00
29461;BME280;16428;47.836;35.106;2023-12-20T01:47:56;101490.75;;;5.86;100.00
29461;BME280;16428;47.836;35.106;2023-12-20T01:50:24;101498.16;;;5.93;100.00
29461;BME280;16428;47.836;35.106;2023-12-20T01:52:52;101495.63;;;5.92;100.00
29461;BME280;16428;47.836;35.106;2023-12-20T01:55:24;101496.94;;;5.86;100.00
29461;BME280;16428;47.836;35.106;2023-12-20T01:57:51;101492.69;;;5.84;100.00
29461;BME280;16428;47.836;35.106;2023-12-20T02:00:19;101482.63;;;5.87;100.00
29461;BME280;16428;47.836;35.106;2023-12-20T02:02:50;101492.47;;;5.87;100.00
29461;BME280;16428;47.836;35.106;2023-12-20T02:05:20;101485.97;;;5.80;100.00
29461;BME280;16428;47.836;35.106;2023-12-20T02:07:48;101476.94;;;5.81;100.00
29461;BME280;16428;47.836;35.106;2023-12-20T02:10:15;101484.56;;;5.85;100.00
29461;BME280;16428;47.836;35.106;2023-12-20T02:12:43;101485.09;;;5.90;100.00
29461;BME280;16428;47.836;35.106;2023-12-20T02:15:10;101490.53;;;5.89;100.00
29461;BME280;16428;47.836;35.106;2023-12-20T02:17:38;101486.13;;;5.99;100.00
29461;BME280;16428;47.836;35.106;2023-12-20T02:20:06;101490.28;;;5.92;100.00
29461;BME280;16428;47.836;35.106;2023-12-20T02:22:34;101492.00;;;5.93;100.00
29461;BME280;16428;47.836;35.106;2023-12-20T02:25:01;101483.03;;;5.94;100.00
29461;BME280;16428;47.836;35.106;2023-12-20T02:27:29;101484.19;;;6.01;100.00
29461;BME280;16428;47.836;35.106;2023-12-20T02:29:56;101480.47;;;5.92;100.00
29461;BME280;16428;47.836;35.106;2023-12-20T02:32:24;101476.00;;;5.93;100.00
29461;BME280;16428;47.836;35.106;2023-12-20T02:34:55;101479.38;;;5.95;100.00
29461;BME280;16428;47.836;35.106;2023-12-20T02:37:22;101468.84;;;5.93;100.00
29461;BME280;16428;47.836;35.106;2023-12-20T02:39:49;101478.34;;;6.07;100.00
29461;BME280;16428;47.836;35.106;2023-12-20T02:42:16;101470.34;;;6.07;100.00
29461;BME280;16428;47.836;35.106;2023-12-20T02:44:43;101462.78;;;6.12;100.00
29461;BME280;16428;47.836;35.106;2023-12-20T02:47:10;101450.38;;;6.22;100.00
29461;BME280;16428;47.836;35.106;2023-12-20T02:49:37;101443.66;;;6.07;100.00
29461;BME280;16428;47.836;35.106;2023-12-20T02:52:05;101457.66;;;6.20;100.00
29461;BME280;16428;47.836;35.106;2023-12-20T02:54:32;101452.31;;;6.20;100.00
29461;BME280;16428;47.836;35.106;2023-12-20T02:56:59;101446.97;;;6.20;100.00
29461;BME280;16428;47.836;35.106;2023-12-20T02:59:26;101443.34;;;6.21;100.00
29461;BME280;16428;47.836;35.106;2023-12-20T03:01:53;101437.44;;;6.27;100.00
29461;BME280;16428;47.836;35.106;2023-12-20T03:04:20;101441.56;;;6.31;100.00
29461;BME280;16428;47.836;35.106;2023-12-20T03:06:47;101442.28;;;6.33;100.00
29461;BME280;16428;47.836;35.106;2023-12-20T03:09:14;101442.53;;;6.30;100.00
29461;BME280;16428;47.836;35.106;2023-12-20T03:11:41;101448.13;;;6.27;100.00
29461;BME280;16428;47.836;35.106;2023-12-20T03:14:08;101434.03;;;6.16;100.00
29461;BME280;16428;47.836;35.106;2023-12-20T03:16:35;101443.13;;;6.34;100.00
29461;BME280;16428;47.836;35.106;2023-12-20T03:19:03;101432.06;;;6.39;100.00
29461;BME280;16428;47.836;35.106;2023-12-20T03:21:30;101426.28;;;6.33;100.00
29461;BME280;16428;47.836;35.106;2023-12-20T03:23:57;101425.06;;;6.47;100.00
29461;BME280;16428;47.836;35.106;2023-12-20T03:26:24;101407.50;;;6.45;100.00
29461;BME280;16428;47.836;35.106;2023-12-20T03:28:51;101411.13;;;6.44;100.00
29461;BME280;16428;47.836;35.106;2023-12-20T03:31:18;101396.81;;;6.45;100.00
29461;BME280;16428;47.836;35.106;2023-12-20T03:33:46;101402.75;;;6.48;100.00
29461;BME280;16428;47.836;35.106;2023-12-20T03:36:13;101399.94;;;6.50;100.00
29461;BME280;16428;47.836;35.106;2023-12-20T03:38:40;101405.28;;;6.50;100.00
29461;BME280;16428;47.836;35.106;2023-12-20T03:41:08;101410.50;;;6.30;100.00
29461;BME280;16428;47.836;35.106;2023-12-20T03:43:35;101417.19;;;6.46;100.00
29461;BME280;16428;47.836;35.106;2023-12-20T03:46:03;101419.28;;;6.42;100.00
29461;BME280;16428;47.836;35.106;2023-12-20T03:48:31;101428.84;;;6.45;100.00
29461;BME280;16428;47.836;35.106;2023-12-20T03:50:58;101426.50;;;6.51;100.00
29461;BME280;16428;47.836;35.106;2023-12-20T03:53:25;101424.09;;;6.48;100.00
29461;BME280;16428;47.836;35.106;2023-12-20T03:55:52;101427.47;;;6.50;100.00
29461;BME280;16428;47.836;35.106;2023-12-20T03:58:19;101433.91;;;6.48;100.00
29461;BME280;16428;47.836;35.106;2023-12-20T04:00:46;101428.72;;;6.46;100.00
29461;BME280;16428;47.836;35.106;2023-12-20T04:03:13;101431.34;;;6.37;100.00
29461;BME280;16428;47.836;35.106;2023-12-20T04:05:41;101432.22;;;6.47;100.00
29461;BME280;16428;47.836;35.106;2023-12-20T04:08:09;101438.28;;;6.49;100.00
29461;BME280;16428;47.836;35.106;2023-12-20T04:10:36;101435.09;;;6.55;100.00
29461;BME280;16428;47.836;35.106;2023-12-20T04:13:04;101436.97;;;6.43;100.00
29461;BME280;16428;47.836;35.106;2023-12-20T04:15:31;101443.28;;;6.63;100.00
29461;BME280;16428;47.836;35.106;2023-12-20T04:17:58;101443.81;;;6.57;100.00
29461;BME280;16428;47.836;35.106;2023-12-20T04:20:26;101443.75;;;6.47;100.00
29461;BME280;16428;47.836;35.106;2023-12-20T04:22:53;101443.94;;;6.55;100.00
29461;BME280;16428;47.836;35.106;2023-12-20T04:25:20;101440.25;;;6.47;100.00
29461;BME280;16428;47.836;35.106;2023-12-20T04:27:47;101438.38;;;6.38;100.00
29461;BME280;16428;47.836;35.106;2023-12-20T04:30:15;101435.72;;;6.38;100.00
29461;BME280;16428;47.836;35.106;2023-12-20T04:32:42;101443.72;;;6.38;100.00
29461;BME280;16428;47.836;35.106;2023-12-20T04:35:09;101441.66;;;6.51;100.00
29461;BME280;16428;47.836;35.106;2023-12-20T04:37:36;101437.47;;;6.58;100.00
29461;BME280;16428;47.836;35.106;2023-12-20T04:40:03;101441.28;;;6.55;100.00
29461;BME280;16428;47.836;35.106;2023-12-20T04:42:32;101434.03;;;6.67;100.00
29461;BME280;16428;47.836;35.106;2023-12-20T04:45:00;101437.94;;;6.63;100.00
29461;BME280;16428;47.836;35.106;2023-12-20T04:47:27;101443.16;;;6.74;100.00
29461;BME280;16428;47.836;35.106;2023-12-20T04:49:54;101438.47;;;6.57;100.00
29461;BME280;16428;47.836;35.106;2023-12-20T04:52:21;101433.31;;;6.65;100.00
29461;BME280;16428;47.836;35.106;2023-12-20T04:54:48;101432.06;;;6.69;100.00
29461;BME280;16428;47.836;35.106;2023-12-20T04:57:15;101432.06;;;6.69;100.00
29461;BME280;16428;47.836;35.106;2023-12-20T04:59:42;101428.69;;;6.67;100.00
29461;BME280;16428;47.836;35.106;2023-12-20T05:02:09;101424.78;;;6.71;100.00
29461;BME280;16428;47.836;35.106;2023-12-20T05:04:36;101427.97;;;6.65;100.00
29461;BME280;16428;47.836;35.106;2023-12-20T05:07:04;101422.22;;;6.69;100.00
29461;BME280;16428;47.836;35.106;2023-12-20T05:09:32;101416.84;;;6.60;100.00
29461;BME280;16428;47.836;35.106;2023-12-20T05:12:00;101411.81;;;6.66;100.00
29461;BME280;16428;47.836;35.106;2023-12-20T05:14:27;101419.44;;;6.71;100.00
29461;BME280;16428;47.836;35.106;2023-12-20T05:16:54;101415.78;;;6.72;100.00
29461;BME280;16428;47.836;35.106;2023-12-20T05:19:22;101419.59;;;6.79;100.00
29461;BME280;16428;47.836;35.106;2023-12-20T05:21:50;101420.41;;;6.70;100.00
29461;BME280;16428;47.836;35.106;2023-12-20T05:24:17;101408.88;;;6.69;100.00
29461;BME280;16428;47.836;35.106;2023-12-20T05:26:44;101406.50;;;6.76;100.00
29461;BME280;16428;47.836;35.106;2023-12-20T05:29:11;101405.91;;;6.72;100.00
29461;BME280;16428;47.836;35.106;2023-12-20T05:31:38;101409.63;;;6.81;100.00
29461;BME280;16428;47.836;35.106;2023-12-20T05:34:05;101395.44;;;6.90;100.00
29461;BME280;16428;47.836;35.106;2023-12-20T05:36:32;101397.13;;;6.82;100.00
29461;BME280;16428;47.836;35.106;2023-12-20T05:38:59;101397.84;;;6.93;100.00
29461;BME280;16428;47.836;35.106;2023-12-20T05:41:26;101402.91;;;6.96;100.00
29461;BME280;16428;47.836;35.106;2023-12-20T05:43:53;101404.44;;;6.89;100.00
29461;BME280;16428;47.836;35.106;2023-12-20T05:46:20;101401.50;;;6.92;100.00
29461;BME280;16428;47.836;35.106;2023-12-20T05:48:48;101395.56;;;6.79;100.00
29461;BME280;16428;47.836;35.106;2023-12-20T05:51:16;101403.13;;;6.74;100.00
29461;BME280;16428;47.836;35.106;2023-12-20T05:53:44;101414.69;;;6.84;100.00
29461;BME280;16428;47.836;35.106;2023-12-20T05:56:11;101414.97;;;6.81;100.00
29461;BME280;16428;47.836;35.106;2023-12-20T05:58:39;101413.25;;;6.80;100.00
29461;BME280;16428;47.836;35.106;2023-12-20T06:01:06;101422.25;;;6.79;100.00
29461;BME280;16428;47.836;35.106;2023-12-20T06:03:35;101415.50;;;6.75;100.00
29461;BME280;16428;47.836;35.106;2023-12-20T06:06:06;101421.81;;;6.74;100.00
29461;BME280;16428;47.836;35.106;2023-12-20T06:08:42;101423.09;;;6.80;100.00
29461;BME280;16428;47.836;35.106;2023-12-20T06:11:10;101425.38;;;6.84;100.00
29461;BME280;16428;47.836;35.106;2023-12-20T06:13:38;101414.78;;;6.73;100.00
29461;BME280;16428;47.836;35.106;2023-12-20T06:16:05;101422.25;;;6.79;100.00
29461;BME280;16428;47.836;35.106;2023-12-20T06:18:34;101436.31;;;6.81;100.00
29461;BME280;16428;47.836;35.106;2023-12-20T06:21:03;101428.72;;;6.77;100.00
29461;BME280;16428;47.836;35.106;2023-12-20T06:23:30;101439.38;;;6.77;100.00
29461;BME280;16428;47.836;35.106;2023-12-20T06:25:57;101436.59;;;6.88;100.00
29461;BME280;16428;47.836;35.106;2023-12-20T06:28:24;101440.09;;;6.79;100.00
29461;BME280;16428;47.836;35.106;2023-12-20T06:30:51;101445.34;;;6.90;100.00
29461;BME280;16428;47.836;35.106;2023-12-20T06:33:20;101442.50;;;6.82;100.00
29461;BME280;16428;47.836;35.106;2023-12-20T06:35:48;101447.47;;;6.86;100.00
29461;BME280;16428;47.836;35.106;2023-12-20T06:38:17;101450.06;;;6.77;100.00
29461;BME280;16428;47.836;35.106;2023-12-20T06:40:45;101458.53;;;6.82;100.00
29461;BME280;16428;47.836;35.106;2023-12-20T06:43:13;101458.41;;;6.83;100.00
29461;BME280;16428;47.836;35.106;2023-12-20T06:45:58;101463.03;;;6.81;100.00
29461;BME280;16428;47.836;35.106;2023-12-20T06:48:25;101453.78;;;6.85;100.00
29461;BME280;16428;47.836;35.106;2023-12-20T06:50:52;101452.09;;;6.84;100.00
29461;BME280;16428;47.836;35.106;2023-12-20T06:53:19;101447.00;;;6.81;100.00
29461;BME280;16428;47.836;35.106;2023-12-20T06:55:47;101446.28;;;6.79;100.00
29461;BME280;16428;47.836;35.106;2023-12-20T06:58:14;101449.69;;;6.81;100.00
29461;BME280;16428;47.836;35.106;2023-12-20T07:00:41;101455.00;;;6.81;100.00
29461;BME280;16428;47.836;35.106;2023-12-20T07:03:09;101454.16;;;6.81;100.00
29461;BME280;16428;47.836;35.106;2023-12-20T07:05:36;101454.31;;;6.79;100.00
29461;BME280;16428;47.836;35.106;2023-12-20T07:08:03;101455.50;;;6.96;100.00
29461;BME280;16428;47.836;35.106;2023-12-20T07:10:31;101452.50;;;6.89;100.00
29461;BME280;16428;47.836;35.106;2023-12-20T07:12:58;101461.41;;;6.99;100.00
29461;BME280;16428;47.836;35.106;2023-12-20T07:15:25;101455.50;;;7.05;100.00
29461;BME280;16428;47.836;35.106;2023-12-20T07:17:53;101452.91;;;7.25;100.00
29461;BME280;16428;47.836;35.106;2023-12-20T07:20:21;101447.78;;;7.02;100.00
29461;BME280;16428;47.836;35.106;2023-12-20T07:22:48;101436.41;;;7.00;100.00
29461;BME280;16428;47.836;35.106;2023-12-20T07:25:15;101435.41;;;7.01;100.00
29461;BME280;16428;47.836;35.106;2023-12-20T07:27:42;101442.03;;;7.07;100.00
29461;BME280;16428;47.836;35.106;2023-12-20T07:30:11;101440.00;;;6.90;100.00
29461;BME280;16428;47.836;35.106;2023-12-20T07:32:39;101451.09;;;6.85;100.00
29461;BME280;16428;47.836;35.106;2023-12-20T07:35:07;101455.38;;;6.67;100.00
29461;BME280;16428;47.836;35.106;2023-12-20T07:37:34;101453.84;;;6.74;100.00
29461;BME280;16428;47.836;35.106;2023-12-20T07:40:01;101450.66;;;6.80;100.00
29461;BME280;16428;47.836;35.106;2023-12-20T07:42:30;101446.13;;;6.71;100.00
29461;BME280;16428;47.836;35.106;2023-12-20T07:44:58;101444.13;;;6.63;100.00
29461;BME280;16428;47.836;35.106;2023-12-20T07:47:25;101437.66;;;6.66;100.00
29461;BME280;16428;47.836;35.106;2023-12-20T07:49:52;101438.06;;;6.61;100.00
29461;BME280;16428;47.836;35.106;2023-12-20T07:52:20;101437.16;;;6.72;100.00
29461;BME280;16428;47.836;35.106;2023-12-20T07:54:49;101449.28;;;6.86;100.00
29461;BME280;16428;47.836;35.106;2023-12-20T07:57:16;101444.19;;;6.83;100.00
29461;BME280;16428;47.836;35.106;2023-12-20T07:59:43;101443.22;;;6.84;100.00
29461;BME280;16428;47.836;35.106;2023-12-20T08:02:11;101445.31;;;6.80;100.00
29461;BME280;16428;47.836;35.106;2023-12-20T08:04:38;101438.88;;;6.92;100.00
29461;BME280;16428;47.836;35.106;2023-12-20T08:07:05;101438.28;;;6.79;100.00
29461;BME280;16428;47.836;35.106;2023-12-20T08:09:32;101434.38;;;6.83;100.00
29461;BME280;16428;47.836;35.106;2023-12-20T08:12:00;101439.97;;;6.80;100.00
29461;BME280;16428;47.836;35.106;2023-12-20T08:14:28;101436.06;;;6.84;100.00
29461;BME280;16428;47.836;35.106;2023-12-20T08:16:55;101432.13;;;6.88;100.00
29461;BME280;16428;47.836;35.106;2023-12-20T08:19:22;101426.63;;;6.80;100.00
29461;BME280;16428;47.836;35.106;2023-12-20T08:21:49;101433.91;;;6.78;100.00
29461;BME280;16428;47.836;35.106;2023-12-20T08:24:17;101428.91;;;6.94;100.00
29461;BME280;16428;47.836;35.106;2023-12-20T08:26:44;101426.63;;;6.90;100.00
29461;BME280;16428;47.836;35.106;2023-12-20T08:29:13;101414.69;;;6.84;100.00
29461;BME280;16428;47.836;35.106;2023-12-20T08:31:40;101415.13;;;6.89;100.00
29461;BME280;16428;47.836;35.106;2023-12-20T08:34:07;101400.38;;;6.95;100.00
29461;BME280;16428;47.836;35.106;2023-12-20T08:36:35;101395.88;;;6.95;100.00
29461;BME280;16428;47.836;35.106;2023-12-20T08:39:02;101390.00;;;7.01;100.00
29461;BME280;16428;47.836;35.106;2023-12-20T08:41:33;101382.97;;;7.10;100.00
29461;BME280;16428;47.836;35.106;2023-12-20T08:44:00;101385.50;;;7.12;100.00
29461;BME280;16428;47.836;35.106;2023-12-20T08:46:27;101388.06;;;7.23;100.00
29461;BME280;16428;47.836;35.106;2023-12-20T08:48:55;101376.25;;;7.25;100.00
29461;BME280;16428;47.836;35.106;2023-12-20T08:51:22;101376.25;;;7.25;100.00
29461;BME280;16428;47.836;35.106;2023-12-20T08:53:52;101377.78;;;7.28;100.00
29461;BME280;16428;47.836;35.106;2023-12-20T08:56:19;101372.19;;;7.31;100.00
29461;BME280;16428;47.836;35.106;2023-12-20T08:58:47;101367.53;;;7.33;100.00
29461;BME280;16428;47.836;35.106;2023-12-20T09:01:14;101360.06;;;7.36;100.00
29461;BME280;16428;47.836;35.106;2023-12-20T09:03:42;101362.47;;;7.39;100.00
29461;BME280;16428;47.836;35.106;2023-12-20T09:06:10;101345.72;;;7.28;100.00
29461;BME280;16428;47.836;35.106;2023-12-20T09:08:37;101341.34;;;7.36;100.00
29461;BME280;16428;47.836;35.106;2023-12-20T09:11:05;101343.91;;;7.48;100.00
29461;BME280;16428;47.836;35.106;2023-12-20T09:13:32;101338.53;;;7.57;100.00
29461;BME280;16428;47.836;35.106;2023-12-20T09:16:00;101334.06;;;7.48;100.00
29461;BME280;16428;47.836;35.106;2023-12-20T09:18:27;101335.03;;;7.57;100.00
29461;BME280;16428;47.836;35.106;2023-12-20T09:20:55;101330.94;;;7.53;100.00
29461;BME280;16428;47.836;35.106;2023-12-20T09:23:22;101326.59;;;7.61;100.00
29461;BME280;16428;47.836;35.106;2023-12-20T09:25:49;101326.28;;;7.64;100.00
29461;BME280;16428;47.836;35.106;2023-12-20T09:28:19;101318.13;;;7.66;100.00
29461;BME280;16428;47.836;35.106;2023-12-20T09:30:46;101318.41;;;7.72;100.00
29461;BME280;16428;47.836;35.106;2023-12-20T09:33:14;101308.09;;;7.87;100.00
29461;BME280;16428;47.836;35.106;2023-12-20T09:35:43;101300.03;;;7.97;100.00
29461;BME280;16428;47.836;35.106;2023-12-20T09:38:11;101284.94;;;7.96;100.00
29461;BME280;16428;47.836;35.106;2023-12-20T09:40:41;101291.09;;;8.16;100.00
29461;BME280;16428;47.836;35.106;2023-12-20T09:43:11;101288.84;;;8.11;100.00
29461;BME280;16428;47.836;35.106;2023-12-20T09:45:42;101292.16;;;8.32;100.00
29461;BME280;16428;47.836;35.106;2023-12-20T09:48:12;101288.53;;;8.24;100.00
29461;BME280;16428;47.836;35.106;2023-12-20T09:50:41;101301.91;;;8.24;100.00
29461;BME280;16428;47.836;35.106;2023-12-20T09:53:15;101290.25;;;8.15;100.00
29461;BME280;16428;47.836;35.106;2023-12-20T09:55:43;101286.56;;;8.16;100.00
29461;BME280;16428;47.836;35.106;2023-12-20T09:58:10;101270.53;;;8.16;100.00
29461;BME280;16428;47.836;35.106;2023-12-20T10:00:37;101256.38;;;8.33;100.00
29461;BME280;16428;47.836;35.106;2023-12-20T10:03:06;101262.50;;;8.43;100.00
29461;BME280;16428;47.836;35.106;2023-12-20T10:05:34;101262.81;;;8.40;100.00
29461;BME280;16428;47.836;35.106;2023-12-20T10:08:02;101268.41;;;8.47;100.00
29461;BME280;16428;47.836;35.106;2023-12-20T10:10:30;101262.38;;;8.45;100.00
29461;BME280;16428;47.836;35.106;2023-12-20T10:13:12;101259.22;;;8.77;100.00
29461;BME280;16428;47.836;35.106;2023-12-20T10:15:40;101248.66;;;8.93;100.00
29461;BME280;16428;47.836;35.106;2023-12-20T10:18:09;101238.22;;;8.90;100.00
29461;BME280;16428;47.836;35.106;2023-12-20T10:20:40;101240.84;;;8.82;100.00
29461;BME280;16428;47.836;35.106;2023-12-20T10:23:08;101246.38;;;8.98;100.00
29461;BME280;16428;47.836;35.106;2023-12-20T10:25:35;101248.78;;;9.09;100.00
29461;BME280;16428;47.836;35.106;2023-12-20T10:28:14;101246.50;;;9.14;100.00
29461;BME280;16428;47.836;35.106;2023-12-20T10:30:41;101235.31;;;9.01;100.00
29461;BME280;16428;47.836;35.106;2023-12-20T10:33:10;101240.59;;;9.11;100.00
29461;BME280;16428;47.836;35.106;2023-12-20T10:35:39;101234.41;;;9.10;100.00
29461;BME280;16428;47.836;35.106;2023-12-20T10:38:11;101232.41;;;9.12;100.00
29461;BME280;16428;47.836;35.106;2023-12-20T10:40:41;101227.66;;;9.24;100.00
29461;BME280;16428;47.836;35.106;2023-12-20T10:43:09;101222.66;;;9.29;100.00
29461;BME280;16428;47.836;35.106;2023-12-20T10:45:37;101220.88;;;9.38;100.00
29461;BME280;16428;47.836;35.106;2023-12-20T10:48:05;101223.56;;;9.38;100.00
29461;BME280;16428;47.836;35.106;2023-12-20T10:50:36;101229.66;;;9.48;100.00
29461;BME280;16428;47.836;35.106;2023-12-20T10:53:06;101221.88;;;9.37;100.00
29461;BME280;16428;47.836;35.106;2023-12-20T10:55:34;101221.59;;;9.48;100.00
29461;BME280;16428;47.836;35.106;2023-12-20T10:58:02;101226.13;;;9.47;100.00
29461;BME280;16428;47.836;35.106;2023-12-20T11:00:38;101226.97;;;9.48;100.00
29461;BME280;16428;47.836;35.106;2023-12-20T11:03:09;101213.31;;;9.59;100.00
29461;BME280;16428;47.836;35.106;2023-12-20T11:05:59;101217.03;;;9.66;100.00
29461;BME280;16428;47.836;35.106;2023-12-20T11:08:42;101213.75;;;9.80;100.00
29461;BME280;16428;47.836;35.106;2023-12-20T11:11:28;101221.81;;;9.80;100.00
29461;BME280;16428;47.836;35.106;2023-12-20T11:14:02;101224.41;;;9.98;100.00
29461;BME280;16428;47.836;35.106;2023-12-20T11:16:37;101197.78;;;10.05;100.00
29461;BME280;16428;47.836;35.106;2023-12-20T11:19:17;101207.16;;;10.09;100.00
29461;BME280;16428;47.836;35.106;2023-12-20T11:21:46;101201.75;;;9.93;100.00
29461;BME280;16428;47.836;35.106;2023-12-20T11:24:15;101200.72;;;9.94;100.00
29461;BME280;16428;47.836;35.106;2023-12-20T11:26:47;101197.78;;;10.05;100.00
29461;BME280;16428;47.836;35.106;2023-12-20T11:29:35;101196.19;;;10.20;100.00
29461;BME280;16428;47.836;35.106;2023-12-20T11:32:04;101197.13;;;10.11;100.00
29461;BME280;16428;47.836;35.106;2023-12-20T11:34:53;101191.56;;;10.38;100.00
29461;BME280;16428;47.836;35.106;2023-12-20T11:37:21;101187.56;;;10.67;100.00
29461;BME280;16428;47.836;35.106;2023-12-20T11:39:56;101194.31;;;10.95;100.00
29461;BME280;16428;47.836;35.106;2023-12-20T11:42:26;101191.78;;;10.93;100.00
29461;BME280;16428;47.836;35.106;2023-12-20T11:44:53;101179.84;;;10.88;100.00
29461;BME280;16428;47.836;35.106;2023-12-20T11:47:20;101180.34;;;10.91;100.00
29461;BME280;16428;47.836;35.106;2023-12-20T11:49:48;101184.22;;;11.05;100.00
29461;BME280;16428;47.836;35.106;2023-12-20T11:52:16;101176.16;;;11.21;100.00
29461;BME280;16428;47.836;35.106;2023-12-20T11:54:43;101162.72;;;11.13;100.00
29461;BME280;16428;47.836;35.106;2023-12-20T11:57:10;101170.09;;;11.03;100.00
29461;BME280;16428;47.836;35.106;2023-12-20T11:59:38;101165.06;;;10.76;100.00
29461;BME280;16428;47.836;35.106;2023-12-20T12:02:05;101161.03;;;10.88;100.00
29461;BME280;16428;47.836;35.106;2023-12-20T12:04:33;101163.91;;;10.95;100.00
29461;BME280;16428;47.836;35.106;2023-12-20T12:07:01;101156.50;;;10.88;100.00
29461;BME280;16428;47.836;35.106;2023-12-20T12:09:28;101157.03;;;10.84;100.00
29461;BME280;16428;47.836;35.106;2023-12-20T12:11:55;101148.13;;;10.83;100.00
29461;BME280;16428;47.836;35.106;2023-12-20T12:14:23;101145.91;;;10.87;100.00
29461;BME280;16428;47.836;35.106;2023-12-20T12:16:50;101140.88;;;10.76;100.00
29461;BME280;16428;47.836;35.106;2023-12-20T12:19:21;101144.59;;;10.83;100.00
29461;BME280;16428;47.836;35.106;2023-12-20T12:22:09;101143.91;;;10.89;100.00
29461;BME280;16428;47.836;35.106;2023-12-20T12:24:44;101142.22;;;10.96;100.00
29461;BME280;16428;47.836;35.106;2023-12-20T12:27:13;101133.50;;;10.94;100.00
29461;BME280;16428;47.836;35.106;2023-12-20T12:29:40;101137.84;;;11.11;100.00
29461;BME280;16428;47.836;35.106;2023-12-20T12:32:09;101136.84;;;11.04;100.00
29461;BME280;16428;47.836;35.106;2023-12-20T12:34:37;101142.34;;;11.27;100.00
29461;BME280;16428;47.836;35.106;2023-12-20T12:37:04;101135.84;;;11.13;100.00
29461;BME280;16428;47.836;35.106;2023-12-20T12:39:31;101133.78;;;11.15;100.00
29461;BME280;16428;47.836;35.106;2023-12-20T12:41:59;101127.94;;;11.04;100.00
29461;BME280;16428;47.836;35.106;2023-12-20T12:44:26;101127.59;;;11.15;100.00